Time;durP1;ratioP1;P1;durP2;ratioP2;P2;SDS_P1;SDS_P2;PMS_P1;PMS_P2;Temp;Humidity;BMP_temperature;BMP_pressure;BME280_temperature;BME280_humidity;BME280_pressure;Samples;Min_cycle;Max_cycle;Signal;HPM_P1;HPM_P2
2021/06/02 00:03:15;;;;;;;6.80;6.07;;;13.40;99.90;;;;;;4119627;23;20489;-49
2021/06/02 00:05:46;;;;;;;5.43;5.00;;;13.40;99.90;;;;;;4977134;28;20560;-53
2021/06/02 00:08:13;;;;;;;6.50;5.77;;;13.30;99.90;;;;;;4980791;28;20479;-53
2021/06/02 00:10:43;;;;;;;6.93;6.27;;;13.30;99.90;;;;;;4981611;28;20886;-51
2021/06/02 00:13:13;;;;;;;5.80;5.30;;;13.20;99.90;;;;;;4980717;28;20479;-50
2021/06/02 00:15:40;;;;;;;8.90;6.03;;;13.20;99.90;;;;;;4981380;28;20469;-52
2021/06/02 00:18:07;;;;;;;6.10;5.50;;;13.20;99.90;;;;;;4981124;28;20902;-51
2021/06/02 00:20:35;;;;;;;9.10;5.70;;;13.10;99.90;;;;;;4981027;28;20472;-45
2021/06/02 00:57:58;;;;;;;6.03;5.43;;;12.60;99.90;;;;;;5398196;23;20458;-46
2021/06/02 01:00:30;;;;;;;6.50;5.70;;;12.60;99.90;;;;;;4960717;29;20473;-48
2021/06/02 01:02:58;;;;;;;6.40;5.60;;;12.50;99.90;;;;;;4961163;29;20875;-45
2021/06/02 01:05:25;;;;;;;7.00;6.40;;;12.40;99.90;;;;;;4954624;29;20467;-44
2021/06/02 01:07:54;;;;;;;7.87;6.73;;;12.40;99.90;;;;;;4958187;29;20494;-44
2021/06/02 01:10:21;;;;;;;7.13;6.53;;;12.30;99.90;;;;;;4961034;28;20462;-44
2021/06/02 01:12:50;;;;;;;6.93;6.27;;;12.30;99.90;;;;;;4960469;28;20467;-51
2021/06/02 01:15:20;;;;;;;6.90;6.20;;;12.40;99.90;;;;;;4960587;28;20445;-48
2021/06/02 01:17:48;;;;;;;7.57;6.83;;;12.40;99.90;;;;;;4960883;28;20752;-52
2021/06/02 01:20:18;;;;;;;6.17;5.67;;;12.30;99.90;;;;;;4961122;28;20467;-48
2021/06/02 01:22:47;;;;;;;5.57;5.10;;;12.30;99.90;;;;;;4960407;28;20517;-55
2021/06/02 01:25:16;;;;;;;6.67;6.03;;;12.30;99.90;;;;;;4960265;28;20557;-48
2021/06/02 01:27:44;;;;;;;7.50;6.67;;;12.30;99.90;;;;;;4960387;28;20593;-50
2021/06/02 01:30:13;;;;;;;8.70;6.93;;;12.30;99.90;;;;;;4960955;28;20898;-48
2021/06/02 01:33:21;;;;;;;7.07;6.47;;;12.30;99.90;;;;;;4960583;28;20471;-52
2021/06/02 01:35:57;;;;;;;6.47;5.70;;;12.30;99.90;;;;;;4926271;28;20748;-48
2021/06/02 01:38:53;;;;;;;6.10;5.50;;;12.20;99.90;;;;;;4960853;28;20748;-51
2021/06/02 01:41:26;;;;;;;7.23;6.33;;;12.20;99.90;;;;;;4959596;28;20881;-48
2021/06/02 01:44:25;;;;;;;7.00;6.30;;;12.20;99.90;;;;;;4960677;28;20466;-48
2021/06/02 01:47:28;;;;;;;6.60;5.97;;;12.20;99.90;;;;;;4960678;28;20470;-45
2021/06/02 01:50:06;;;;;;;6.37;5.77;;;12.20;99.90;;;;;;4958276;29;20529;-44
2021/06/02 01:53:17;;;;;;;10.20;6.03;;;12.20;99.90;;;;;;4960553;28;20466;-49
2021/06/02 01:56:13;;;;;;;6.53;5.90;;;12.20;99.90;;;;;;4960195;28;20463;-47
2021/06/02 01:59:10;;;;;;;6.63;5.90;;;12.10;99.90;;;;;;4967297;28;20489;-54
2021/06/02 02:02:28;;;;;;;8.07;5.93;;;12.20;99.90;;;;;;4979384;28;20516;-51
2021/06/02 02:05:09;;;;;;;7.80;6.07;;;12.10;99.90;;;;;;4897220;29;20461;-45
2021/06/02 02:08:10;;;;;;;6.00;5.50;;;12.10;99.90;;;;;;4959447;29;20494;-48
2021/06/02 02:10:43;;;;;;;8.50;6.50;;;12.10;99.90;;;;;;4940856;29;20470;-48
2021/06/02 02:13:50;;;;;;;6.60;6.10;;;12.10;99.90;;;;;;4947394;29;20554;-44
2021/06/02 02:16:32;;;;;;;6.10;5.60;;;12.10;99.90;;;;;;4901038;29;20465;-48
2021/06/02 02:19:18;;;;;;;8.07;6.50;;;12.20;99.90;;;;;;4952172;29;20463;-49
2021/06/02 02:21:54;;;;;;;8.50;6.10;;;12.10;99.90;;;;;;4957032;29;20466;-51
2021/06/02 02:24:40;;;;;;;6.73;6.10;;;12.20;99.90;;;;;;4960516;29;20467;-48
2021/06/02 02:27:22;;;;;;;7.20;6.37;;;12.10;99.90;;;;;;4959995;29;20593;-48
2021/06/02 02:29:57;;;;;;;6.63;6.03;;;12.10;99.90;;;;;;4959449;29;20557;-50
2021/06/02 02:32:47;;;;;;;7.80;7.10;;;12.10;99.90;;;;;;4959689;29;20891;-49
2021/06/02 02:35:35;;;;;;;7.07;6.37;;;12.00;99.90;;;;;;4959602;29;20541;-52
2021/06/02 02:38:09;;;;;;;7.43;6.73;;;12.00;99.90;;;;;;4959419;29;20458;-48
2021/06/02 02:40:55;;;;;;;8.67;6.83;;;12.00;99.90;;;;;;4959852;29;20516;-52
2021/06/02 02:43:39;;;;;;;6.10;5.50;;;12.00;99.90;;;;;;4959142;29;20571;-52
2021/06/02 02:46:10;;;;;;;7.73;6.37;;;12.00;99.90;;;;;;4959457;29;20467;-48
2021/06/02 02:48:40;;;;;;;6.63;6.03;;;12.00;99.90;;;;;;4959091;29;20490;-49
2021/06/02 02:51:23;;;;;;;6.70;6.20;;;12.00;99.90;;;;;;4959222;29;20495;-49
2021/06/02 02:53:58;;;;;;;7.00;6.40;;;12.00;99.90;;;;;;4958922;28;20764;-52
2021/06/02 02:56:31;;;;;;;7.30;6.70;;;12.00;99.90;;;;;;4959226;29;20482;-51
2021/06/02 02:59:11;;;;;;;13.90;6.63;;;11.90;99.90;;;;;;4958651;29;20486;-54
2021/06/02 03:01:47;;;;;;;7.30;6.60;;;11.90;99.90;;;;;;4959004;29;20887;-49
2021/06/02 03:04:19;;;;;;;8.20;7.10;;;11.90;99.90;;;;;;4949757;29;20782;-51
2021/06/02 03:06:50;;;;;;;7.43;6.30;;;11.80;99.90;;;;;;4958994;29;20464;-49
2021/06/02 03:09:31;;;;;;;7.97;6.20;;;11.70;99.90;;;;;;4958840;29;20478;-52
2021/06/02 03:12:13;;;;;;;7.10;6.40;;;11.70;99.90;;;;;;4959380;29;20477;-50
2021/06/02 03:14:50;;;;;;;8.00;6.90;;;11.70;99.90;;;;;;4939807;29;20784;-45
2021/06/02 03:17:24;;;;;;;6.60;6.10;;;11.70;99.90;;;;;;4939886;29;20959;-47
2021/06/02 03:20:05;;;;;;;5.97;5.40;;;11.60;99.90;;;;;;4939817;29;20466;-52
2021/06/02 03:22:51;;;;;;;6.50;5.87;;;11.50;99.90;;;;;;4955239;29;20903;-48
2021/06/02 03:25:25;;;;;;;6.50;5.90;;;11.50;99.90;;;;;;4959041;29;20462;-51
2021/06/02 03:28:07;;;;;;;7.70;6.93;;;11.50;99.90;;;;;;4958955;29;20554;-46
2021/06/02 03:30:36;;;;;;;6.80;6.20;;;11.50;99.90;;;;;;4959277;29;20470;-48
2021/06/02 03:33:22;;;;;;;6.90;6.30;;;11.50;99.90;;;;;;4958566;29;20467;-48
2021/06/02 03:35:59;;;;;;;7.80;7.10;;;11.50;99.90;;;;;;4959058;29;20478;-49
2021/06/02 03:38:42;;;;;;;7.57;6.97;;;11.60;99.90;;;;;;4959235;29;20546;-45
2021/06/02 03:41:18;;;;;;;7.13;6.43;;;11.60;99.90;;;;;;4958823;29;20467;-45
2021/06/02 03:43:49;;;;;;;6.53;5.97;;;11.60;99.90;;;;;;4958566;29;20473;-44
2021/06/02 03:46:39;;;;;;;7.60;7.00;;;11.70;99.90;;;;;;4959178;29;20518;-45
2021/06/02 03:49:13;;;;;;;9.40;5.97;;;11.60;99.90;;;;;;4958874;29;20763;-50
2021/06/02 03:51:48;;;;;;;7.10;6.40;;;11.60;99.90;;;;;;4958997;29;20497;-45
2021/06/02 03:54:27;;;;;;;8.17;7.47;;;11.60;99.90;;;;;;4958622;29;20466;-44
2021/06/02 03:57:14;;;;;;;8.30;7.50;;;11.50;99.90;;;;;;4958488;29;20462;-44
2021/06/02 03:59:43;;;;;;;8.00;7.10;;;11.60;99.90;;;;;;4949206;29;20943;-44
2021/06/02 04:02:18;;;;;;;9.70;8.70;;;11.60;99.90;;;;;;4958608;29;20522;-45
2021/06/02 04:05:03;;;;;;;8.20;7.50;;;11.60;99.90;;;;;;4951765;28;20942;-46
2021/06/02 04:07:42;;;;;;;7.73;7.13;;;11.70;99.90;;;;;;4955977;29;20494;-45
2021/06/02 04:10:12;;;;;;;7.67;6.97;;;11.70;99.90;;;;;;4961450;29;20466;-47
2021/06/02 04:12:50;;;;;;;9.43;7.33;;;11.60;99.90;;;;;;4962064;29;20564;-44
2021/06/02 04:15:17;;;;;;;8.37;7.10;;;11.60;99.90;;;;;;4961899;29;20489;-44
2021/06/02 04:17:49;;;;;;;8.03;7.23;;;11.70;99.90;;;;;;4961720;29;20462;-44
2021/06/02 04:20:19;;;;;;;10.10;6.90;;;11.70;99.90;;;;;;4961553;29;20470;-45
2021/06/02 04:22:47;;;;;;;7.63;6.87;;;11.70;99.90;;;;;;4961576;29;20455;-49
2021/06/02 04:25:17;;;;;;;8.20;7.27;;;11.70;99.90;;;;;;4961513;29;20569;-51
2021/06/02 04:27:46;;;;;;;6.90;6.03;;;11.80;99.90;;;;;;4961778;29;20868;-45
2021/06/02 04:30:15;;;;;;;7.73;7.03;;;11.80;99.90;;;;;;4961574;29;20510;-45
2021/06/02 04:32:43;;;;;;;6.97;6.27;;;11.90;99.90;;;;;;4961804;29;20494;-44
2021/06/02 04:35:13;;;;;;;7.53;6.93;;;11.90;99.90;;;;;;4961480;29;20477;-44
2021/06/02 04:37:41;;;;;;;8.23;5.90;;;12.00;99.90;;;;;;4961428;29;20758;-44
2021/06/02 04:40:10;;;;;;;7.70;6.50;;;12.00;99.90;;;;;;4960705;29;20474;-45
2021/06/02 04:42:38;;;;;;;6.00;5.50;;;12.10;99.90;;;;;;4961219;29;20463;-48
2021/06/02 04:45:10;;;;;;;6.60;5.77;;;12.20;99.90;;;;;;4961443;29;20490;-48
2021/06/02 04:47:39;;;;;;;9.50;6.37;;;12.30;99.90;;;;;;4961345;29;20490;-53
2021/06/02 04:50:14;;;;;;;6.27;5.87;;;12.40;99.90;;;;;;4959359;29;20474;-46
2021/06/02 04:53:18;;;;;;;7.37;6.53;;;12.50;99.90;;;;;;4959778;29;20537;-54
2021/06/02 04:56:11;;;;;;;6.27;5.77;;;12.50;99.90;;;;;;4960690;29;20462;-48
2021/06/02 04:59:12;;;;;;;6.87;6.20;;;12.60;99.90;;;;;;4960409;29;20537;-45
2021/06/02 05:02:01;;;;;;;8.33;6.40;;;12.70;99.90;;;;;;4961076;29;20953;-45
2021/06/02 05:05:07;;;;;;;6.40;5.80;;;12.80;99.90;;;;;;4951776;28;20521;-45
2021/06/02 05:08:11;;;;;;;7.13;5.90;;;12.90;99.90;;;;;;4953807;29;20766;-48
2021/06/02 05:11:11;;;;;;;6.73;6.13;;;13.00;99.90;;;;;;4942222;29;20475;-54
2021/06/02 05:14:13;;;;;;;8.60;6.70;;;13.10;99.90;;;;;;4951319;29;20722;-46
2021/06/02 05:17:10;;;;;;;8.03;6.77;;;13.30;99.90;;;;;;4960408;28;20466;-45
2021/06/02 05:20:25;;;;;;;7.27;6.50;;;13.40;99.90;;;;;;4960733;29;20463;-49
2021/06/02 05:23:28;;;;;;;8.17;6.60;;;13.60;99.90;;;;;;4960208;29;20458;-52
2021/06/02 05:26:21;;;;;;;8.83;7.20;;;13.80;99.90;;;;;;4960192;29;20911;-52
2021/06/02 05:29:32;;;;;;;9.53;7.90;;;14.00;99.90;;;;;;4960176;29;20505;-52
2021/06/02 05:32:37;;;;;;;7.13;6.53;;;14.30;99.90;;;;;;4960307;29;20478;-52
2021/06/02 05:35:25;;;;;;;10.37;7.20;;;14.50;99.90;;;;;;4961462;29;20477;-49
2021/06/02 05:38:31;;;;;;;9.73;7.00;;;14.80;99.90;;;;;;4960529;29;20485;-47
2021/06/02 05:41:07;;;;;;;7.00;6.40;;;15.00;99.90;;;;;;4942872;29;20911;-49
2021/06/02 05:44:14;;;;;;;7.50;6.80;;;15.40;99.90;;;;;;4941469;29;20908;-51
2021/06/02 05:47:29;;;;;;;7.50;6.23;;;15.80;99.90;;;;;;4941173;29;20463;-47
2021/06/02 05:50:29;;;;;;;8.83;6.13;;;16.30;99.90;;;;;;4920019;29;20621;-53
2021/06/02 05:53:32;;;;;;;6.53;5.93;;;16.90;99.90;;;;;;4940895;29;20473;-46
2021/06/02 05:56:50;;;;;;;7.00;6.43;;;17.40;99.90;;;;;;4940825;29;20467;-47
2021/06/02 05:59:53;;;;;;;9.10;7.00;;;17.80;99.90;;;;;;4921645;29;20491;-53
2021/06/02 06:03:06;;;;;;;8.10;6.57;;;18.40;99.90;;;;;;4940484;29;20463;-51
2021/06/02 06:06:13;;;;;;;8.40;6.20;;;18.80;99.90;;;;;;4956642;29;20967;-53
2021/06/02 06:09:45;;;;;;;7.27;6.23;;;19.20;97.30;;;;;;4948956;29;20497;-49
2021/06/02 06:12:50;;;;;;;6.77;6.03;;;19.60;95.30;;;;;;4957218;29;20823;-50
2021/06/02 06:15:48;;;;;;;6.30;5.70;;;20.00;90.50;;;;;;4955054;29;20521;-46
2021/06/02 06:18:44;;;;;;;5.37;4.87;;;20.50;92.40;;;;;;4940551;29;20519;-55
2021/06/02 06:21:53;;;;;;;6.20;5.80;;;21.00;83.70;;;;;;4950782;29;20470;-53
2021/06/02 06:24:23;;;;;;;6.70;5.13;;;21.40;81.00;;;;;;4959805;29;20462;-47
2021/06/02 06:26:59;;;;;;;5.30;4.90;;;21.80;76.80;;;;;;4959377;28;20469;-52
2021/06/02 06:29:33;;;;;;;6.33;5.83;;;22.10;71.70;;;;;;4958378;29;20527;-46
2021/06/02 06:32:02;;;;;;;5.60;5.20;;;22.40;68.60;;;;;;4958868;29;20753;-49
2021/06/02 06:34:34;;;;;;;5.43;4.87;;;22.60;66.60;;;;;;4958829;29;20462;-53
2021/06/02 06:37:02;;;;;;;5.70;5.20;;;23.10;66.40;;;;;;4959574;29;20459;-48
2021/06/02 06:39:39;;;;;;;5.37;4.80;;;23.30;65.30;;;;;;4959028;29;20469;-50
2021/06/02 06:42:07;;;;;;;5.17;4.77;;;23.50;61.30;;;;;;4959079;29;20462;-55
2021/06/02 06:44:38;;;;;;;8.53;5.17;;;23.80;60.90;;;;;;4959036;29;20903;-54
2021/06/02 06:47:06;;;;;;;6.13;5.67;;;24.10;62.80;;;;;;4958573;29;20470;-50
2021/06/02 06:49:36;;;;;;;7.30;5.20;;;24.10;59.00;;;;;;4958812;29;20953;-50
2021/06/02 06:52:03;;;;;;;4.83;4.43;;;24.50;59.10;;;;;;4959476;29;20470;-56
2021/06/02 06:54:30;;;;;;;5.67;5.17;;;24.80;57.20;;;;;;4958990;29;20946;-50
2021/06/02 06:56:59;;;;;;;5.07;4.77;;;24.90;58.10;;;;;;4959452;29;20509;-50
2021/06/02 06:59:26;;;;;;;7.40;5.10;;;25.30;58.80;;;;;;4958702;29;20490;-46
2021/06/02 07:01:53;;;;;;;5.47;5.07;;;25.60;57.40;;;;;;4959305;29;20767;-49
2021/06/02 07:04:22;;;;;;;5.50;5.10;;;25.60;53.10;;;;;;4950227;29;20951;-54
2021/06/02 07:06:56;;;;;;;5.00;4.50;;;25.70;54.90;;;;;;4958810;29;20510;-48
2021/06/02 07:09:22;;;;;;;5.20;4.90;;;26.20;54.10;;;;;;4958628;29;20516;-46
2021/06/02 07:11:50;;;;;;;4.90;4.60;;;26.40;50.80;;;;;;4959191;29;20467;-49
2021/06/02 07:14:24;;;;;;;4.60;4.30;;;26.50;50.20;;;;;;4958402;29;20466;-56
2021/06/02 07:16:51;;;;;;;4.90;4.50;;;26.50;49.50;;;;;;4959431;29;20472;-47
2021/06/02 07:19:21;;;;;;;5.70;4.00;;;26.60;49.20;;;;;;4958865;29;20466;-47
2021/06/02 07:21:53;;;;;;;4.97;4.57;;;26.50;47.70;;;;;;4959028;29;20455;-54
2021/06/02 07:24:20;;;;;;;4.73;4.43;;;26.40;49.20;;;;;;4959301;29;20479;-50
2021/06/02 07:26:52;;;;;;;12.00;5.00;;;26.30;47.80;;;;;;4959123;29;20903;-48
2021/06/02 07:29:18;;;;;;;5.43;5.03;;;26.20;46.50;;;;;;4953472;29;20505;-48
2021/06/02 07:31:45;;;;;;;7.23;5.43;;;26.20;45.50;;;;;;4959148;29;20859;-51
2021/06/02 07:34:13;;;;;;;5.10;4.70;;;26.10;45.50;;;;;;4958573;29;20522;-54
2021/06/02 07:36:42;;;;;;;5.40;5.00;;;25.90;45.20;;;;;;4959027;29;20466;-48
2021/06/02 07:39:10;;;;;;;7.37;5.00;;;25.80;45.20;;;;;;4959781;28;20539;-49
2021/06/02 07:41:41;;;;;;;5.03;4.63;;;25.90;46.50;;;;;;4960833;29;20474;-48
2021/06/02 07:44:07;;;;;;;4.87;4.47;;;26.30;46.70;;;;;;4941448;29;20472;-49
2021/06/02 07:46:34;;;;;;;5.93;5.50;;;26.50;44.60;;;;;;4941620;29;20478;-52
2021/06/02 07:49:05;;;;;;;4.83;4.53;;;26.80;45.50;;;;;;4942547;29;20583;-47
2021/06/02 07:51:31;;;;;;;4.13;3.83;;;27.30;45.90;;;;;;4943095;29;20522;-47
2021/06/02 07:53:58;;;;;;;5.73;4.83;;;27.40;42.90;;;;;;4943027;29;20471;-44
2021/06/02 07:56:26;;;;;;;4.33;4.03;;;27.30;43.40;;;;;;4943124;29;20467;-46
2021/06/02 07:58:53;;;;;;;4.60;4.30;;;27.20;42.30;;;;;;4942471;29;20491;-44
2021/06/02 08:01:19;;;;;;;4.60;4.30;;;27.50;43.00;;;;;;4954874;29;20495;-45
2021/06/02 08:03:48;;;;;;;4.13;3.83;;;28.00;40.80;;;;;;4953498;28;20831;-47
2021/06/02 08:06:18;;;;;;;4.80;4.20;;;27.90;39.80;;;;;;4958995;29;20465;-51
2021/06/02 08:08:45;;;;;;;5.03;4.63;;;28.10;39.00;;;;;;4960481;28;20521;-51
2021/06/02 08:11:11;;;;;;;4.47;4.17;;;28.10;38.80;;;;;;4959962;28;20946;-52
2021/06/02 08:13:39;;;;;;;6.20;4.60;;;28.20;39.90;;;;;;4960407;28;20471;-48
2021/06/02 08:16:06;;;;;;;5.07;4.53;;;28.00;39.70;;;;;;4960037;28;20466;-55
2021/06/02 08:18:32;;;;;;;5.23;4.90;;;27.90;40.50;;;;;;4961351;28;20459;-50
2021/06/02 08:20:59;;;;;;;5.10;4.50;;;28.00;39.40;;;;;;4960375;28;20466;-51
2021/06/02 08:23:26;;;;;;;4.50;4.20;;;28.30;39.90;;;;;;4960985;28;20462;-48
2021/06/02 08:25:52;;;;;;;4.67;4.23;;;28.00;38.20;;;;;;4961711;28;20467;-49
2021/06/02 08:28:21;;;;;;;4.80;4.47;;;28.30;38.90;;;;;;4962038;28;20938;-48
2021/06/02 08:30:51;;;;;;;4.57;4.17;;;28.50;39.00;;;;;;4961786;28;20470;-46
2021/06/02 08:33:18;;;;;;;5.70;4.00;;;28.80;38.40;;;;;;4961295;28;20471;-48
2021/06/02 08:35:45;;;;;;;5.20;4.80;;;28.80;37.20;;;;;;4961544;28;20470;-46
2021/06/02 08:38:12;;;;;;;4.03;3.83;;;29.10;37.20;;;;;;4961605;28;20765;-45
2021/06/02 08:40:39;;;;;;;4.27;3.97;;;29.20;35.90;;;;;;4961605;28;20899;-50
2021/06/02 08:43:11;;;;;;;4.53;4.10;;;29.00;35.90;;;;;;4961185;28;20471;-47
2021/06/02 08:45:38;;;;;;;4.57;4.17;;;29.00;36.20;;;;;;4961422;28;20770;-47
2021/06/02 08:48:08;;;;;;;4.40;4.00;;;29.00;36.60;;;;;;4961354;28;20502;-48
2021/06/02 08:50:37;;;;;;;4.30;4.07;;;29.20;36.20;;;;;;4961141;28;20517;-47
2021/06/02 08:53:04;;;;;;;4.20;3.90;;;29.20;34.90;;;;;;4961155;28;20811;-51
2021/06/02 08:55:30;;;;;;;5.07;3.80;;;29.40;33.20;;;;;;4961048;28;20470;-53
2021/06/02 08:57:59;;;;;;;3.90;3.43;;;28.80;33.30;;;;;;4961327;28;20801;-54
2021/06/02 09:00:27;;;;;;;4.10;3.70;;;28.80;34.00;;;;;;4978092;28;20536;-51
2021/06/02 09:02:54;;;;;;;4.53;4.13;;;29.00;35.00;;;;;;4972535;28;20959;-51
2021/06/02 09:05:24;;;;;;;4.80;3.87;;;28.90;34.80;;;;;;4956407;28;20826;-47
2021/06/02 09:07:52;;;;;;;4.13;3.80;;;28.60;34.10;;;;;;4960368;29;20816;-51
2021/06/02 09:10:19;;;;;;;4.43;4.13;;;29.10;34.50;;;;;;4960630;29;20768;-51
2021/06/02 09:12:53;;;;;;;3.53;3.23;;;29.50;35.50;;;;;;4960726;29;20470;-44
2021/06/02 09:15:19;;;;;;;4.27;4.00;;;29.60;34.40;;;;;;4960592;29;20521;-54
2021/06/02 09:17:56;;;;;;;4.40;4.10;;;30.00;34.30;;;;;;4960664;29;20532;-47
2021/06/02 09:20:34;;;;;;;4.20;3.90;;;30.10;34.10;;;;;;4961092;29;20470;-51
2021/06/02 10:39:17;;;;;;;4.40;3.93;;;32.30;30.70;;;;;;5176665;23;20501;-51
2021/06/02 10:41:50;;;;;;;5.30;4.13;;;32.50;30.70;;;;;;4978883;28;20474;-47
2021/06/02 10:44:22;;;;;;;4.40;4.00;;;32.50;31.40;;;;;;4981296;28;20795;-43
2021/06/02 10:46:52;;;;;;;4.63;4.33;;;31.90;32.00;;;;;;4996795;28;20484;-44
2021/06/02 11:25:21;;;;;;;3.70;3.50;;;31.40;30.20;;;;;;5267799;23;20759;-50
2021/06/02 11:27:49;;;;;;;4.10;3.80;;;31.60;30.90;;;;;;4980564;28;20536;-47
2021/06/02 11:30:26;;;;;;;4.03;3.83;;;31.80;30.30;;;;;;4980309;28;20480;-47
2021/06/02 11:32:59;;;;;;;4.80;4.50;;;31.70;30.40;;;;;;4981149;28;20473;-47
2021/06/02 11:36:12;;;;;;;4.33;3.90;;;32.30;30.00;;;;;;4981529;28;20473;-47
2021/06/02 11:38:47;;;;;;;5.47;4.10;;;32.60;30.30;;;;;;4981057;28;20462;-50
2021/06/02 11:41:16;;;;;;;4.03;3.73;;;31.90;29.70;;;;;;4979952;28;20447;-57
2021/06/02 11:43:42;;;;;;;3.70;3.40;;;31.70;30.00;;;;;;4978842;28;20504;-56
2021/06/02 11:46:09;;;;;;;5.00;3.70;;;31.40;30.00;;;;;;4980252;28;20469;-50
2021/06/02 11:48:38;;;;;;;4.60;4.23;;;31.90;30.90;;;;;;4980488;28;20497;-47
2021/06/02 11:51:07;;;;;;;4.50;3.77;;;32.00;28.70;;;;;;4980447;28;20474;-50
2021/06/02 11:53:42;;;;;;;6.80;4.07;;;32.70;30.20;;;;;;4979463;28;20473;-47
2021/06/02 11:56:09;;;;;;;4.17;3.83;;;33.30;29.00;;;;;;4979888;28;20464;-47
2021/06/02 11:58:40;;;;;;;5.63;3.97;;;33.30;29.30;;;;;;4978507;28;20465;-52
2021/06/02 12:01:07;;;;;;;5.33;3.70;;;33.50;29.10;;;;;;4978379;28;20795;-45
2021/06/02 12:03:34;;;;;;;4.40;4.00;;;33.70;30.00;;;;;;4972674;28;20473;-45
2021/06/02 12:06:01;;;;;;;5.13;3.40;;;33.40;29.00;;;;;;4974953;28;20473;-48
2021/06/02 12:08:28;;;;;;;3.83;3.53;;;32.80;28.80;;;;;;4979512;28;20525;-45
2021/06/02 12:10:59;;;;;;;5.70;3.87;;;32.20;29.50;;;;;;4979458;28;20473;-46
2021/06/02 12:13:28;;;;;;;4.43;4.00;;;32.40;30.80;;;;;;4980629;28;20436;-44
2021/06/02 12:15:58;;;;;;;4.47;4.17;;;32.50;30.90;;;;;;4979482;28;20469;-46
2021/06/02 12:18:32;;;;;;;4.60;4.20;;;32.80;29.70;;;;;;4980403;28;20457;-45
2021/06/02 12:56:24;;;;;;;4.57;3.00;;;33.50;30.10;;;;;;5452489;23;20477;-54
2021/06/02 12:58:53;;;;;;;4.40;4.20;;;33.20;28.50;;;;;;4982915;28;20788;-53
2021/06/02 13:01:20;;;;;;;4.27;3.60;;;32.60;29.70;;;;;;4986758;28;20470;-53
2021/06/02 13:03:48;;;;;;;3.93;3.63;;;32.20;29.30;;;;;;4972005;28;20478;-47
2021/06/02 13:06:16;;;;;;;4.10;3.70;;;31.60;29.70;;;;;;4978701;28;20825;-47
2021/06/02 13:08:43;;;;;;;4.23;3.93;;;31.80;31.00;;;;;;4977638;28;20517;-50
2021/06/02 13:11:12;;;;;;;4.03;3.83;;;32.00;29.70;;;;;;4979920;28;20470;-50
2021/06/02 13:13:41;;;;;;;6.97;4.20;;;32.30;29.20;;;;;;4979147;28;20890;-49
2021/06/02 13:16:11;;;;;;;3.83;3.53;;;31.90;28.90;;;;;;4978400;28;20477;-51
2021/06/02 13:18:40;;;;;;;5.37;4.10;;;31.70;29.80;;;;;;4979587;28;20502;-52
2021/06/02 13:21:12;;;;;;;3.43;3.23;;;31.70;29.60;;;;;;4978320;28;20592;-47
2021/06/02 13:23:41;;;;;;;3.53;3.20;;;31.50;29.00;;;;;;4979631;28;20473;-46
2021/06/02 13:26:09;;;;;;;4.30;3.63;;;31.50;28.40;;;;;;4979053;28;20649;-50
2021/06/02 13:28:43;;;;;;;3.70;3.40;;;32.00;29.40;;;;;;4978380;28;20466;-49
2021/06/02 13:31:12;;;;;;;3.20;3.03;;;32.30;28.50;;;;;;4979838;28;20552;-46
2021/06/02 13:33:41;;;;;;;3.73;3.47;;;32.20;29.50;;;;;;4978483;28;20474;-47
2021/06/02 13:36:10;;;;;;;3.87;3.50;;;31.70;29.60;;;;;;4979039;28;20501;-48
2021/06/02 13:38:40;;;;;;;2.87;2.63;;;31.70;29.40;;;;;;4976577;28;20490;-46
2021/06/02 13:41:19;;;;;;;5.13;4.00;;;31.60;30.20;;;;;;4978044;28;20473;-50
2021/06/02 13:43:46;;;;;;;8.00;4.13;;;31.90;29.60;;;;;;4977853;28;20527;-45
2021/06/02 13:46:21;;;;;;;3.70;3.50;;;31.50;29.40;;;;;;4979378;28;20473;-51
2021/06/02 13:48:50;;;;;;;3.87;3.40;;;31.50;29.80;;;;;;4978851;28;20808;-46
2021/06/02 13:51:22;;;;;;;3.83;3.53;;;31.40;29.70;;;;;;4978241;28;20572;-53
2021/06/02 13:54:03;;;;;;;4.03;3.70;;;31.00;29.40;;;;;;4979172;28;20478;-55
2021/06/02 13:56:31;;;;;;;3.50;3.20;;;30.70;30.20;;;;;;4979542;28;20477;-51
2021/06/02 13:59:08;;;;;;;5.67;3.77;;;31.00;30.60;;;;;;4998434;28;20539;-51
2021/06/02 14:01:37;;;;;;;4.17;3.97;;;31.00;30.30;;;;;;4994270;28;20475;-51
2021/06/02 14:04:05;;;;;;;4.67;4.13;;;31.30;30.50;;;;;;4988940;28;20478;-45
2021/06/02 14:06:32;;;;;;;3.43;3.23;;;31.30;30.00;;;;;;4997443;28;20496;-53
2021/06/02 14:09:06;;;;;;;4.33;3.90;;;31.70;30.00;;;;;;4996953;28;20778;-49
2021/06/02 14:11:32;;;;;;;3.80;3.50;;;32.10;30.70;;;;;;4996970;28;20460;-53
2021/06/02 14:13:59;;;;;;;3.37;3.17;;;32.10;29.00;;;;;;4996114;28;20473;-48
2021/06/02 14:16:25;;;;;;;3.97;3.77;;;31.90;29.40;;;;;;4998238;28;20479;-44
2021/06/02 14:18:55;;;;;;;3.77;3.47;;;31.60;29.30;;;;;;4996532;28;20496;-44
2021/06/02 14:21:21;;;;;;;3.53;3.23;;;31.40;29.50;;;;;;4995562;28;20472;-47
2021/06/02 14:23:48;;;;;;;3.40;3.20;;;31.00;29.50;;;;;;4996661;28;20465;-48
2021/06/02 14:26:18;;;;;;;3.73;3.37;;;31.30;30.00;;;;;;4997046;28;20603;-46
2021/06/02 14:28:45;;;;;;;4.70;3.57;;;31.20;29.80;;;;;;4992298;28;21150;-45
2021/06/02 14:31:12;;;;;;;3.67;3.37;;;31.50;30.10;;;;;;4996245;28;20476;-50
2021/06/02 14:33:40;;;;;;;3.60;3.30;;;31.80;29.10;;;;;;4996298;28;20737;-44
2021/06/02 14:39:06;;;;;;;7.57;5.67;;;32.00;29.80;;;;;;5154544;23;20794;-50
2021/06/02 14:41:35;;;;;;;5.10;4.13;;;31.60;30.00;;;;;;4978904;28;20865;-47
2021/06/02 14:44:01;;;;;;;3.60;3.30;;;31.20;30.00;;;;;;4977808;28;20484;-50
2021/06/02 14:46:31;;;;;;;4.23;3.93;;;31.30;30.40;;;;;;4977954;28;20466;-47
2021/06/02 14:48:57;;;;;;;4.77;4.30;;;31.10;30.60;;;;;;4977896;28;20894;-47
2021/06/02 14:51:24;;;;;;;8.23;4.83;;;31.20;31.70;;;;;;4978407;28;20470;-50
2021/06/02 14:53:52;;;;;;;4.00;3.70;;;31.20;31.70;;;;;;4978439;28;20470;-48
2021/06/02 14:56:20;;;;;;;3.67;3.47;;;31.30;31.90;;;;;;4978071;28;20847;-51
2021/06/02 14:58:49;;;;;;;4.40;4.10;;;31.30;32.10;;;;;;4977824;28;20954;-51
2021/06/02 15:01:16;;;;;;;3.87;3.57;;;31.10;31.50;;;;;;4976927;28;20485;-49
2021/06/02 15:03:42;;;;;;;4.77;4.47;;;31.00;32.10;;;;;;4970186;28;20528;-50
2021/06/02 15:06:10;;;;;;;4.40;4.10;;;31.00;31.90;;;;;;4976191;28;20602;-45
2021/06/02 15:08:38;;;;;;;4.60;3.53;;;30.90;31.90;;;;;;4978172;28;20626;-53
2021/06/02 15:11:09;;;;;;;3.60;3.40;;;30.60;32.20;;;;;;4977507;28;20461;-53
2021/06/02 15:13:37;;;;;;;4.20;3.27;;;30.50;32.40;;;;;;4972598;28;20899;-54
2021/06/02 15:16:05;;;;;;;6.17;3.97;;;30.40;29.90;;;;;;4977433;28;20462;-53
2021/06/02 15:18:32;;;;;;;3.73;3.33;;;30.10;30.60;;;;;;4977988;28;20828;-52
2021/06/02 15:21:00;;;;;;;3.97;3.63;;;30.20;31.00;;;;;;4977485;28;20875;-50
2021/06/02 15:23:28;;;;;;;4.63;4.17;;;30.40;31.30;;;;;;4978102;28;20470;-46
2021/06/02 15:25:56;;;;;;;4.00;3.70;;;30.30;32.30;;;;;;4977148;28;20474;-47
2021/06/02 15:28:29;;;;;;;7.10;3.70;;;30.50;31.80;;;;;;4964373;28;20495;-44
2021/06/02 15:31:02;;;;;;;3.67;3.47;;;30.60;30.40;;;;;;4977163;28;20898;-51
2021/06/02 15:33:28;;;;;;;3.70;3.50;;;30.20;29.80;;;;;;4977860;28;20481;-50
2021/06/02 15:35:57;;;;;;;4.13;3.60;;;30.30;30.60;;;;;;4976285;28;20474;-46
2021/06/02 15:38:24;;;;;;;3.97;3.77;;;30.20;29.90;;;;;;4976060;28;20587;-47
2021/06/02 15:40:55;;;;;;;5.10;3.60;;;30.00;30.80;;;;;;4976783;28;20469;-48
2021/06/02 15:43:23;;;;;;;4.10;3.80;;;30.00;31.10;;;;;;4976912;28;20478;-44
2021/06/02 15:45:54;;;;;;;3.60;3.30;;;30.00;30.90;;;;;;4978022;28;20491;-47
2021/06/02 15:48:24;;;;;;;6.37;3.70;;;29.90;30.70;;;;;;4977930;28;20472;-46
2021/06/02 15:50:51;;;;;;;3.93;3.73;;;29.90;30.50;;;;;;4976782;28;20445;-45
2021/06/02 15:53:20;;;;;;;3.80;3.50;;;30.10;30.50;;;;;;4977609;28;20890;-45
2021/06/02 15:55:47;;;;;;;3.33;3.03;;;30.00;29.50;;;;;;4977282;28;20470;-46
2021/06/02 15:58:15;;;;;;;4.87;3.80;;;29.80;29.30;;;;;;4977529;28;20462;-47
2021/06/02 16:00:45;;;;;;;3.40;3.20;;;29.70;30.20;;;;;;4977812;28;20509;-49
2021/06/02 16:03:12;;;;;;;3.80;3.60;;;29.60;30.00;;;;;;4974505;28;20452;-46
2021/06/02 16:05:41;;;;;;;3.50;3.20;;;29.40;30.10;;;;;;4976575;28;20473;-47
2021/06/02 16:08:08;;;;;;;4.03;3.73;;;29.60;30.20;;;;;;4979960;28;20481;-51
2021/06/02 16:10:35;;;;;;;3.70;3.40;;;29.80;30.30;;;;;;4974260;28;20781;-51
2021/06/02 16:13:01;;;;;;;3.70;3.50;;;29.60;30.00;;;;;;4980814;28;20476;-48
2021/06/02 16:15:32;;;;;;;3.67;3.47;;;29.50;30.80;;;;;;4981377;28;20528;-53
2021/06/02 16:18:00;;;;;;;4.20;3.90;;;29.50;30.60;;;;;;4981453;28;20894;-50
2021/06/02 16:20:29;;;;;;;3.87;3.67;;;29.70;30.00;;;;;;4980859;28;20881;-48
2021/06/02 16:22:57;;;;;;;3.80;3.60;;;29.70;30.00;;;;;;4980713;28;20497;-44
2021/06/02 16:25:24;;;;;;;3.87;3.67;;;29.50;30.00;;;;;;4981070;28;20481;-44
2021/06/02 16:27:52;;;;;;;6.40;3.60;;;29.40;30.40;;;;;;4980763;28;20469;-46
2021/06/02 16:30:20;;;;;;;4.23;3.80;;;29.50;30.80;;;;;;4979569;28;20470;-45
2021/06/02 16:32:50;;;;;;;4.47;3.77;;;29.50;30.00;;;;;;4980933;28;20461;-44